Time;durP1;ratioP1;P1;durP2;ratioP2;P2;SDS_P1;SDS_P2;PMS_P1;PMS_P2;Temp;Humidity;BMP_temperature;BMP_pressure;BME280_temperature;BME280_humidity;BME280_pressure;Samples;Min_cycle;Max_cycle;Signal;HPM_P1;HPM_P2
2023/09/11 00:00:32;;;;;;;;;;;;;;;17.04;74.69;101297.55;106096;1270;61383;-80
2023/09/11 00:03:18;;;;;;;;;;;;;;;17.01;74.85;101298.77;105999;1271;125098;-81
2023/09/11 00:05:45;;;;;;;;;;;;;;;17.00;74.90;101300.00;106037;1270;64929;-78
2023/09/11 00:08:12;;;;;;;;;;;;;;;16.99;74.95;101298.21;106065;1269;125096;-78
2023/09/11 00:10:38;;;;;;;;;;;;;;;16.97;75.20;101298.02;105979;1267;59598;-79
2023/09/11 00:13:05;;;;;;;;;;;;;;;16.96;75.13;101297.84;105994;1270;61146;-80
2023/09/11 00:15:32;;;;;;;;;;;;;;;16.96;75.22;101298.91;105951;1270;125154;-80
2023/09/11 00:17:59;;;;;;;;;;;;;;;16.95;75.28;101297.30;106008;1267;66846;-80
2023/09/11 00:20:26;;;;;;;;;;;;;;;16.93;75.29;101298.35;105940;1270;125148;-80
2023/09/11 00:22:52;;;;;;;;;;;;;;;16.91;75.38;101295.32;106132;1270;61198;-80
2023/09/11 00:25:19;;;;;;;;;;;;;;;16.91;75.43;101301.70;106023;1268;61280;-80
2023/09/11 00:27:45;;;;;;;;;;;;;;;16.89;75.40;101297.79;108177;1267;125654;-81
2023/09/11 00:30:12;;;;;;;;;;;;;;;16.88;75.44;101300.45;107002;1268;61332;-81
2023/09/11 00:32:38;;;;;;;;;;;;;;;16.88;75.54;101301.16;106052;1267;125161;-80
2023/09/11 00:35:05;;;;;;;;;;;;;;;16.86;75.48;101299.19;105992;1270;61211;-80
2023/09/11 00:37:31;;;;;;;;;;;;;;;16.84;75.53;101300.77;105895;1267;125173;-80
2023/09/11 00:39:58;;;;;;;;;;;;;;;16.82;75.65;101304.11;105985;1267;59388;-77
2023/09/11 00:42:24;;;;;;;;;;;;;;;16.81;75.60;101308.15;105928;1267;59711;-79
2023/09/11 00:44:50;;;;;;;;;;;;;;;16.80;75.67;101315.92;105910;1267;125128;-81
2023/09/11 00:47:17;;;;;;;;;;;;;;;16.77;75.76;101317.16;105845;1269;59638;-81
2023/09/11 00:49:43;;;;;;;;;;;;;;;16.76;75.75;101313.42;105868;1268;125916;-79
2023/09/11 00:52:10;;;;;;;;;;;;;;;16.74;75.86;101312.70;105834;1270;59490;-80
2023/09/11 00:54:37;;;;;;;;;;;;;;;16.71;75.82;101309.14;105956;1272;67201;-80
2023/09/11 00:57:03;;;;;;;;;;;;;;;16.70;75.79;101309.29;105778;1272;124943;-80
2023/09/11 00:59:30;;;;;;;;;;;;;;;16.67;75.91;101307.50;106071;1267;61405;-80
2023/09/11 01:01:56;;;;;;;;;;;;;;;16.65;75.91;101304.30;106011;1269;125175;-80
2023/09/11 01:04:23;;;;;;;;;;;;;;;16.63;76.11;101301.27;106057;1270;61362;-80
2023/09/11 01:06:49;;;;;;;;;;;;;;;16.60;76.07;101300.17;105965;1272;64689;-80
2023/09/11 01:09:16;;;;;;;;;;;;;;;16.59;76.23;101299.10;105986;1270;125292;-79
2023/09/11 01:11:42;;;;;;;;;;;;;;;16.57;76.30;101294.64;105878;1271;60891;-80
2023/09/11 01:14:09;;;;;;;;;;;;;;;16.56;76.29;101290.39;105863;1267;124922;-79
2023/09/11 01:16:47;;;;;;;;;;;;;;;16.54;76.40;101292.33;106111;1272;59727;-80
2023/09/11 01:19:26;;;;;;;;;;;;;;;16.51;76.42;101290.17;106200;1267;64801;-80
2023/09/11 01:21:52;;;;;;;;;;;;;;;16.48;76.47;101288.90;106032;1268;71217;-80
2023/09/11 01:24:19;;;;;;;;;;;;;;;16.46;76.55;101289.77;106041;1267;61287;-80
2023/09/11 01:27:15;;;;;;;;;;;;;;;16.43;76.62;101286.91;105850;1267;125657;-80
2023/09/11 01:29:42;;;;;;;;;;;;;;;16.40;76.72;101287.41;105815;1273;74503;-79
2023/09/11 01:32:08;;;;;;;;;;;;;;;16.39;76.89;101288.82;105896;1273;125165;-79
2023/09/11 01:34:35;;;;;;;;;;;;;;;16.37;76.86;101283.30;106005;1273;72762;-80
2023/09/11 01:37:01;;;;;;;;;;;;;;;16.36;77.02;101285.23;106029;1267;61382;-80
2023/09/11 01:39:28;;;;;;;;;;;;;;;16.35;76.88;101283.29;105961;1270;125621;-79
2023/09/11 01:41:55;;;;;;;;;;;;;;;16.34;77.08;101281.16;106167;1267;74710;-79
2023/09/11 01:44:23;;;;;;;;;;;;;;;16.32;77.11;101277.96;106023;1268;125462;-80
2023/09/11 01:46:49;;;;;;;;;;;;;;;16.31;77.07;101279.52;105787;1271;73182;-80
2023/09/11 01:49:16;;;;;;;;;;;;;;;16.29;77.14;101276.50;105979;1268;61495;-79
2023/09/11 01:51:42;;;;;;;;;;;;;;;16.26;77.18;101277.89;105943;1267;125847;-79
2023/09/11 01:54:09;;;;;;;;;;;;;;;16.25;77.13;101279.29;106093;1271;61227;-80
2023/09/11 01:56:35;;;;;;;;;;;;;;;16.23;77.31;101274.84;105893;1273;125395;-80
2023/09/11 01:59:02;;;;;;;;;;;;;;;16.20;77.26;101278.54;106053;1267;61278;-80
2023/09/11 02:01:29;;;;;;;;;;;;;;;16.20;77.28;101278.17;105840;1274;125262;-80
2023/09/11 02:03:55;;;;;;;;;;;;;;;16.19;77.27;101277.27;106084;1274;61307;-80
2023/09/11 02:06:21;;;;;;;;;;;;;;;16.17;77.40;101278.49;106141;1272;61361;-80
2023/09/11 02:08:48;;;;;;;;;;;;;;;16.15;77.32;101276.70;105758;1283;125699;-83
2023/09/11 02:11:16;;;;;;;;;;;;;;;16.13;77.36;101278.45;106065;1272;73213;-83
2023/09/11 02:13:42;;;;;;;;;;;;;;;16.12;77.32;101276.87;105872;1267;125182;-80
2023/09/11 02:16:09;;;;;;;;;;;;;;;16.11;77.44;101277.02;106050;1267;59605;-80
2023/09/11 02:18:35;;;;;;;;;;;;;;;16.09;77.36;101273.29;106001;1267;61559;-80
2023/09/11 02:21:02;;;;;;;;;;;;;;;16.08;77.40;101277.34;105800;1267;125001;-81
2023/09/11 02:23:28;;;;;;;;;;;;;;;16.06;77.43;101276.80;106027;1270;61296;-80
2023/09/11 02:25:56;;;;;;;;;;;;;;;16.04;77.47;101276.59;106041;1273;125301;-82
2023/09/11 02:28:22;;;;;;;;;;;;;;;16.02;77.42;101278.70;105804;1272;59845;-83
2023/09/11 02:30:49;;;;;;;;;;;;;;;16.00;77.52;101277.97;106039;1267;73449;-83
2023/09/11 02:33:15;;;;;;;;;;;;;;;15.98;77.50;101282.91;105756;1272;125350;-83
2023/09/11 02:35:42;;;;;;;;;;;;;;;15.97;77.66;101281.30;106053;1267;72720;-83
2023/09/11 02:38:08;;;;;;;;;;;;;;;15.96;77.67;101278.80;105759;1273;125092;-83
2023/09/11 02:40:36;;;;;;;;;;;;;;;15.94;77.66;101281.44;105992;1267;61269;-83
2023/09/11 02:43:02;;;;;;;;;;;;;;;15.93;77.65;101281.08;105989;1267;75235;-83
2023/09/11 02:45:29;;;;;;;;;;;;;;;15.89;77.71;101277.66;105912;1267;125430;-83
2023/09/11 02:47:56;;;;;;;;;;;;;;;15.89;77.72;101275.56;105800;1270;72497;-84
2023/09/11 02:50:23;;;;;;;;;;;;;;;15.88;77.70;101275.17;105747;1266;124897;-82
2023/09/11 02:52:49;;;;;;;;;;;;;;;15.86;77.77;101273.39;105965;1267;61212;-82
2023/09/11 02:55:16;;;;;;;;;;;;;;;15.84;77.70;101273.36;105792;1268;61218;-82
2023/09/11 02:57:42;;;;;;;;;;;;;;;15.82;77.88;101269.10;105715;1270;125068;-83
2023/09/11 03:00:09;;;;;;;;;;;;;;;15.81;77.94;101269.97;105791;1267;72680;-83
2023/09/11 03:02:36;;;;;;;;;;;;;;;15.80;77.98;101272.95;105881;1267;125284;-83
2023/09/11 03:05:02;;;;;;;;;;;;;;;15.79;77.98;101268.70;106059;1267;61227;-83
2023/09/11 03:07:29;;;;;;;;;;;;;;;15.77;78.10;101272.58;105844;1269;125780;-82
2023/09/11 03:09:55;;;;;;;;;;;;;;;15.76;78.15;101268.31;106001;1267;61948;-83
2023/09/11 03:12:22;;;;;;;;;;;;;;;15.75;78.11;101266.88;105951;1267;61341;-83
2023/09/11 03:14:54;;;;;;;;;;;;;;;15.73;78.15;101271.29;105770;1270;125084;-84
2023/09/11 03:17:21;;;;;;;;;;;;;;;15.73;78.13;101270.55;106040;1270;61280;-84
2023/09/11 03:19:47;;;;;;;;;;;;;;;15.72;78.24;101268.06;105891;1267;125378;-84
2023/09/11 03:22:14;;;;;;;;;;;;;;;15.73;78.21;101268.95;105987;1267;65010;-83
2023/09/11 03:24:41;;;;;;;;;;;;;;;15.72;78.22;101271.41;105986;1271;72720;-84
2023/09/11 03:27:07;;;;;;;;;;;;;;;15.72;78.31;101271.41;105830;1273;126779;-84
2023/09/11 03:29:33;;;;;;;;;;;;;;;15.71;78.26;101269.98;106018;1267;61250;-83
2023/09/11 03:32:00;;;;;;;;;;;;;;;15.69;78.33;101272.45;105883;1267;125796;-84
2023/09/11 03:34:27;;;;;;;;;;;;;;;15.67;78.22;101268.35;106084;1267;66279;-84
2023/09/11 03:36:53;;;;;;;;;;;;;;;15.68;78.27;101268.54;106034;1270;72755;-84
2023/09/11 03:39:20;;;;;;;;;;;;;;;15.67;78.36;101269.41;105934;1270;125559;-85
2023/09/11 03:41:46;;;;;;;;;;;;;;;15.66;78.31;101266.38;105916;1271;61392;-84
2023/09/11 03:44:13;;;;;;;;;;;;;;;15.66;78.44;101268.15;105856;1267;125188;-84
2023/09/11 03:46:40;;;;;;;;;;;;;;;15.65;78.36;101263.01;105999;1272;61233;-83
2023/09/11 03:49:07;;;;;;;;;;;;;;;15.65;78.46;101263.17;105912;1267;72548;-84
2023/09/11 03:51:33;;;;;;;;;;;;;;;15.63;78.29;101261.93;105873;1267;125192;-83
2023/09/11 03:54:00;;;;;;;;;;;;;;;15.62;78.46;101262.80;105968;1267;59454;-83
2023/09/11 03:56:26;;;;;;;;;;;;;;;15.61;78.47;101259.07;105730;1270;125156;-83
2023/09/11 03:58:53;;;;;;;;;;;;;;;15.61;78.54;101255.54;105954;1273;59692;-83
2023/09/11 04:01:19;;;;;;;;;;;;;;;15.62;78.64;101255.55;105797;1267;59737;-82
2023/09/11 04:03:46;;;;;;;;;;;;;;;15.62;78.55;101247.94;105995;1268;124924;-83
2023/09/11 04:06:12;;;;;;;;;;;;;;;15.61;78.55;101245.97;105954;1268;61465;-82
2023/09/11 04:08:39;;;;;;;;;;;;;;;15.62;78.55;101244.04;105729;1267;125166;-82
2023/09/11 04:11:05;;;;;;;;;;;;;;;15.61;78.51;101245.63;106054;1268;61418;-82
2023/09/11 04:13:32;;;;;;;;;;;;;;;15.62;78.57;101247.95;105868;1270;125321;-81
2023/09/11 04:15:58;;;;;;;;;;;;;;;15.63;78.59;101250.07;106072;1267;61299;-82
2023/09/11 04:18:25;;;;;;;;;;;;;;;15.64;78.54;101247.62;106005;1267;61246;-81
2023/09/11 04:20:59;;;;;;;;;;;;;;;15.66;78.62;101247.45;105807;1267;125994;-82
2023/09/11 04:23:25;;;;;;;;;;;;;;;15.68;78.65;101243.94;106011;1268;64797;-82
2023/09/11 04:25:53;;;;;;;;;;;;;;;15.70;78.60;101244.50;105801;1267;126334;-83
2023/09/11 04:28:19;;;;;;;;;;;;;;;15.74;78.63;101245.63;105814;1267;59674;-83
2023/09/11 04:30:46;;;;;;;;;;;;;;;15.79;78.53;101247.81;105906;1270;61260;-83
2023/09/11 04:33:12;;;;;;;;;;;;;;;15.83;78.49;101243.98;105875;1267;125323;-83
2023/09/11 04:35:39;;;;;;;;;;;;;;;15.89;78.48;101238.38;106029;1267;65164;-85
2023/09/11 04:38:05;;;;;;;;;;;;;;;16.08;78.89;101243.17;105853;1267;125200;-84
2023/09/11 04:40:32;;;;;;;;;;;;;;;16.62;79.55;101237.81;106122;1267;61344;-84
2023/09/11 04:42:58;;;;;;;;;;;;;;;17.31;79.29;101231.91;105788;1267;61444;-85
2023/09/11 04:45:25;;;;;;;;;;;;;;;17.97;78.57;101230.75;105670;1270;125457;-84
2023/09/11 04:47:51;;;;;;;;;;;;;;;18.59;77.78;101229.05;105984;1267;61237;-84
2023/09/11 04:50:18;;;;;;;;;;;;;;;19.19;76.85;101227.55;105737;1270;124977;-85
2023/09/11 04:52:44;;;;;;;;;;;;;;;19.76;75.82;101230.90;105903;1267;61362;-81
2023/09/11 04:55:11;;;;;;;;;;;;;;;20.07;74.39;101228.06;105983;1267;61283;-80
2023/09/11 04:57:39;;;;;;;;;;;;;;;20.07;73.08;101226.64;105818;1268;125976;-80
2023/09/11 05:00:10;;;;;;;;;;;;;;;19.96;72.20;101229.55;106103;1267;66014;-79
2023/09/11 05:02:36;;;;;;;;;;;;;;;19.77;71.71;101226.63;105455;1268;125192;-77
2023/09/11 05:05:03;;;;;;;;;;;;;;;19.59;71.60;101226.86;105287;1272;61256;-85
2023/09/11 05:07:30;;;;;;;;;;;;;;;19.46;71.56;101226.92;105771;1267;125581;-85
2023/09/11 05:09:56;;;;;;;;;;;;;;;19.38;71.51;101226.61;105992;1273;74710;-81
2023/09/11 05:12:23;;;;;;;;;;;;;;;19.32;71.64;101230.19;105958;1267;61315;-83
2023/09/11 05:14:49;;;;;;;;;;;;;;;19.30;71.64;101230.55;105673;1268;125402;-80
2023/09/11 05:17:16;;;;;;;;;;;;;;;19.30;71.56;101225.91;106032;1267;61265;-80
2023/09/11 05:19:45;;;;;;;;;;;;;;;19.29;71.35;101230.02;105900;1272;124564;-80
2023/09/11 05:22:11;;;;;;;;;;;;;;;19.26;71.28;101232.34;105909;1267;74554;-80
2023/09/11 05:24:38;;;;;;;;;;;;;;;19.25;71.39;101229.14;106079;1268;65553;-82
2023/09/11 05:27:06;;;;;;;;;;;;;;;19.26;71.33;101229.48;105917;1267;125242;-78
2023/09/11 05:29:33;;;;;;;;;;;;;;;19.21;71.15;101229.86;106040;1272;61319;-81
2023/09/11 05:31:59;;;;;;;;;;;;;;;19.20;71.27;101226.83;105941;1267;125037;-81
2023/09/11 05:34:28;;;;;;;;;;;;;;;19.19;71.28;101224.88;105950;1267;72090;-81
2023/09/11 05:36:55;;;;;;;;;;;;;;;19.20;71.28;101227.55;105257;1271;66017;-78
2023/09/11 05:39:23;;;;;;;;;;;;;;;19.20;71.34;101227.01;105095;1270;124919;-79
2023/09/11 05:41:56;;;;;;;;;;;;;;;19.21;71.34;101225.77;105975;1267;61056;-75
2023/09/11 05:44:22;;;;;;;;;;;;;;;19.23;71.43;101225.41;105119;1267;125949;-75
2023/09/11 05:46:51;;;;;;;;;;;;;;;19.25;71.34;101227.19;105171;1268;73897;-75
2023/09/11 05:49:18;;;;;;;;;;;;;;;19.25;71.33;101225.21;105277;1267;63539;-85
2023/09/11 05:51:45;;;;;;;;;;;;;;;19.27;71.34;101228.06;105715;1267;125031;-88
2023/09/11 05:54:11;;;;;;;;;;;;;;;19.29;71.44;101229.84;105999;1267;61391;-81
2023/09/11 05:56:38;;;;;;;;;;;;;;;19.33;71.37;101230.01;105841;1267;125606;-82
2023/09/11 05:59:04;;;;;;;;;;;;;;;19.39;71.55;101230.52;105847;1271;59306;-81
2023/09/11 06:01:31;;;;;;;;;;;;;;;19.48;71.65;101232.61;106026;1270;125189;-81
2023/09/11 06:03:58;;;;;;;;;;;;;;;19.54;71.50;101232.94;106241;1267;61359;-82
2023/09/11 06:06:25;;;;;;;;;;;;;;;19.62;71.50;101231.84;106318;1267;59518;-82
2023/09/11 06:08:51;;;;;;;;;;;;;;;19.70;71.38;101226.83;106199;1273;125005;-82
2023/09/11 06:11:18;;;;;;;;;;;;;;;19.79;71.34;101231.96;106315;1268;74480;-84
2023/09/11 06:13:44;;;;;;;;;;;;;;;19.86;71.33;101228.19;106601;1267;125149;-86
2023/09/11 06:16:12;;;;;;;;;;;;;;;19.96;71.20;101230.98;105748;1270;72574;-85
2023/09/11 06:18:39;;;;;;;;;;;;;;;20.04;71.25;101228.80;108355;1267;59078;-85
2023/09/11 06:21:06;;;;;;;;;;;;;;;20.15;71.02;101228.73;107428;1267;125111;-85
2023/09/11 06:23:32;;;;;;;;;;;;;;;20.24;70.90;101229.55;106062;1267;74699;-84
2023/09/11 06:25:58;;;;;;;;;;;;;;;20.31;70.77;101230.74;105764;1267;124845;-84
2023/09/11 06:28:25;;;;;;;;;;;;;;;20.36;70.47;101228.21;105881;1268;72417;-83
2023/09/11 06:30:52;;;;;;;;;;;;;;;20.40;70.38;101224.25;106008;1268;61214;-84
2023/09/11 06:33:18;;;;;;;;;;;;;;;20.47;70.26;101227.76;105777;1270;125246;-85
2023/09/11 06:35:45;;;;;;;;;;;;;;;20.53;70.23;101225.40;105896;1271;61310;-85
2023/09/11 06:38:11;;;;;;;;;;;;;;;20.60;70.15;101224.65;105775;1268;124458;-86
2023/09/11 06:40:49;;;;;;;;;;;;;;;20.66;70.20;101219.61;105949;1267;72760;-87
2023/09/11 06:43:15;;;;;;;;;;;;;;;20.72;70.15;101221.88;105709;1267;61271;-77
2023/09/11 06:45:42;;;;;;;;;;;;;;;20.79;69.96;101220.38;105199;1268;125908;-86
2023/09/11 06:48:12;;;;;;;;;;;;;;;20.86;70.08;101224.95;105851;1270;61164;-84
2023/09/11 06:50:40;;;;;;;;;;;;;;;20.93;70.05;101225.95;106017;1267;124244;-86
2023/09/11 06:53:08;;;;;;;;;;;;;;;21.01;69.97;101224.80;106160;1269;73045;-86
2023/09/11 06:55:34;;;;;;;;;;;;;;;21.07;69.94;101223.85;105825;1268;124533;-86
2023/09/11 06:58:01;;;;;;;;;;;;;;;21.13;69.80;101223.23;106133;1267;61147;-85
2023/09/11 07:00:28;;;;;;;;;;;;;;;21.20;69.80;101224.59;105900;1267;74735;-85
2023/09/11 07:02:56;;;;;;;;;;;;;;;21.28;69.88;101225.73;105873;1267;124478;-85
2023/09/11 07:05:22;;;;;;;;;;;;;;;21.36;69.81;101225.83;105887;1267;72253;-85
2023/09/11 07:07:49;;;;;;;;;;;;;;;21.43;69.85;101223.98;105797;1267;124452;-85
2023/09/11 07:10:17;;;;;;;;;;;;;;;21.50;69.80;101226.94;105939;1267;60502;-86
2023/09/11 07:12:44;;;;;;;;;;;;;;;21.58;69.87;101222.55;105903;1267;73365;-86
2023/09/11 07:15:11;;;;;;;;;;;;;;;21.68;69.78;101226.35;106702;1267;125136;-87
2023/09/11 07:17:38;;;;;;;;;;;;;;;21.78;69.85;101224.97;106037;1267;71348;-87
2023/09/11 07:20:04;;;;;;;;;;;;;;;21.87;69.56;101228.23;106122;1275;125299;-85
2023/09/11 07:22:31;;;;;;;;;;;;;;;21.95;69.38;101227.22;105967;1268;59346;-86
2023/09/11 07:24:58;;;;;;;;;;;;;;;22.03;69.19;101223.90;105988;1267;74697;-86
2023/09/11 07:27:33;;;;;;;;;;;;;;;22.09;69.00;101223.98;105970;1267;125663;-86
2023/09/11 07:29:59;;;;;;;;;;;;;;;22.17;68.82;101225.81;106022;1268;72606;-86
2023/09/11 07:32:26;;;;;;;;;;;;;;;22.27;68.85;101227.27;105964;1268;125093;-86
2023/09/11 07:34:52;;;;;;;;;;;;;;;22.37;68.83;101227.52;106020;1273;61289;-86
2023/09/11 07:37:19;;;;;;;;;;;;;;;22.46;68.67;101224.30;106107;1267;61297;-85
2023/09/11 07:39:45;;;;;;;;;;;;;;;22.56;68.54;101224.34;105987;1267;124951;-84
2023/09/11 07:42:12;;;;;;;;;;;;;;;22.64;68.59;101227.23;106020;1267;61391;-84
2023/09/11 07:44:38;;;;;;;;;;;;;;;22.71;68.26;101224.59;105697;1267;174879;-84
2023/09/11 07:47:05;;;;;;;;;;;;;;;22.79;68.14;101226.08;106144;1267;61416;-84
2023/09/11 07:49:31;;;;;;;;;;;;;;;22.87;67.94;101229.67;105936;1267;125705;-85
2023/09/11 07:51:58;;;;;;;;;;;;;;;22.93;67.71;101228.67;106201;1267;61260;-84
2023/09/11 07:54:24;;;;;;;;;;;;;;;22.99;67.59;101229.83;106071;1267;61263;-84
2023/09/11 07:56:52;;;;;;;;;;;;;;;23.03;67.44;101230.84;106023;1271;124853;-84
2023/09/11 07:59:21;;;;;;;;;;;;;;;23.08;67.03;101229.51;105813;1267;59315;-84
2023/09/11 08:01:47;;;;;;;;;;;;;;;23.11;66.87;101227.85;106015;1267;124810;-84
2023/09/11 08:04:14;;;;;;;;;;;;;;;23.12;66.64;101227.83;106116;1267;66164;-85
2023/09/11 08:06:40;;;;;;;;;;;;;;;23.14;66.49;101227.08;106137;1270;72786;-84
2023/09/11 08:09:07;;;;;;;;;;;;;;;23.13;66.28;101223.49;105852;1267;124758;-85
2023/09/11 08:11:37;;;;;;;;;;;;;;;23.18;66.34;101225.72;105922;1267;61500;-85
2023/09/11 08:14:04;;;;;;;;;;;;;;;23.22;66.24;101224.92;105950;1267;124547;-84
2023/09/11 08:16:31;;;;;;;;;;;;;;;23.27;66.17;101224.29;106823;1267;61193;-85
2023/09/11 08:18:57;;;;;;;;;;;;;;;23.33;66.11;101224.19;106980;1271;72587;-84
2023/09/11 08:21:24;;;;;;;;;;;;;;;23.35;65.96;101222.88;105957;1267;124306;-83
2023/09/11 08:23:50;;;;;;;;;;;;;;;23.38;65.87;101222.83;105854;1272;61076;-84
2023/09/11 08:26:17;;;;;;;;;;;;;;;23.43;65.80;101222.35;105917;1267;124673;-84
2023/09/11 08:28:44;;;;;;;;;;;;;;;23.47;65.72;101220.12;106043;1267;66285;-85
2023/09/11 08:31:10;;;;;;;;;;;;;;;23.52;65.52;101224.15;105985;1267;61291;-83
2023/09/11 08:33:37;;;;;;;;;;;;;;;23.57;65.44;101224.40;105914;1267;127312;-85
2023/09/11 08:36:03;;;;;;;;;;;;;;;23.61;65.23;101220.73;105886;1270;61294;-84
2023/09/11 08:38:30;;;;;;;;;;;;;;;23.64;65.18;101221.73;105767;1273;125045;-84
2023/09/11 08:40:57;;;;;;;;;;;;;;;23.68;65.07;101219.85;105931;1267;61380;-84
2023/09/11 08:43:24;;;;;;;;;;;;;;;23.74;65.02;101221.70;105950;1273;61422;-84
2023/09/11 08:45:51;;;;;;;;;;;;;;;23.81;65.05;101217.08;105670;1270;124205;-84
2023/09/11 08:48:18;;;;;;;;;;;;;;;23.88;64.89;101221.95;105958;1267;61294;-84
2023/09/11 08:50:48;;;;;;;;;;;;;;;23.95;64.88;101221.24;106037;1267;125027;-84
2023/09/11 08:53:15;;;;;;;;;;;;;;;24.03;64.64;101219.11;105885;1273;64098;-85
2023/09/11 08:55:42;;;;;;;;;;;;;;;24.07;64.39;101220.25;105800;1266;124632;-86
2023/09/11 08:58:10;;;;;;;;;;;;;;;24.10;63.92;101218.59;105977;1268;59389;-86
2023/09/11 09:00:36;;;;;;;;;;;;;;;24.15;64.00;101220.42;106032;1267;61748;-84
2023/09/11 09:03:03;;;;;;;;;;;;;;;24.22;64.19;101220.42;105769;1267;124634;-85
2023/09/11 09:05:30;;;;;;;;;;;;;;;24.29;64.07;101212.75;106138;1271;67063;-84
2023/09/11 09:07:56;;;;;;;;;;;;;;;24.30;63.52;101214.86;105885;1267;124448;-84
2023/09/11 09:10:23;;;;;;;;;;;;;;;24.31;63.11;101213.77;105895;1267;59761;-84
2023/09/11 09:12:54;;;;;;;;;;;;;;;24.31;63.15;101211.96;106030;1267;61393;-84
2023/09/11 09:15:21;;;;;;;;;;;;;;;24.34;63.01;101211.71;105706;1267;125294;-85
2023/09/11 09:17:48;;;;;;;;;;;;;;;24.38;62.88;101212.15;105987;1267;65540;-84
2023/09/11 09:20:15;;;;;;;;;;;;;;;24.43;62.92;101214.19;105827;1267;124524;-83
2023/09/11 09:22:57;;;;;;;;;;;;;;;24.44;62.65;101211.11;105999;1267;61373;-85
2023/09/11 09:25:24;;;;;;;;;;;;;;;24.44;62.49;101205.18;105999;1267;60233;-85
2023/09/11 09:27:51;;;;;;;;;;;;;;;24.49;62.47;101203.10;105814;1267;124315;-85
2023/09/11 09:30:20;;;;;;;;;;;;;;;24.54;62.42;101203.53;105828;1268;65233;-87
2023/09/11 09:32:48;;;;;;;;;;;;;;;24.57;62.28;101198.97;105800;1267;124437;-86
2023/09/11 09:35:15;;;;;;;;;;;;;;;24.59;62.03;101197.27;105851;1267;61465;-85
2023/09/11 09:37:52;;;;;;;;;;;;;;;24.61;61.75;101194.54;105939;1268;124584;-84
2023/09/11 09:40:28;;;;;;;;;;;;;;;24.66;61.68;101191.56;106051;1267;73385;-88
2023/09/11 09:42:55;;;;;;;;;;;;;;;24.71;61.52;101191.62;105993;1270;66331;-88
2023/09/11 09:45:35;;;;;;;;;;;;;;;24.76;61.54;101186.98;105823;1268;126024;-87
2023/09/11 09:48:11;;;;;;;;;;;;;;;24.84;61.88;101184.96;105951;1268;61393;-88
2023/09/11 09:50:57;;;;;;;;;;;;;;;24.88;61.35;101182.17;105935;1271;124355;-87
2023/09/11 09:53:24;;;;;;;;;;;;;;;24.91;61.28;101180.30;105996;1267;73618;-86
2023/09/11 09:55:51;;;;;;;;;;;;;;;24.92;61.30;101176.68;105940;1267;124987;-87
2023/09/11 09:58:18;;;;;;;;;;;;;;;24.94;61.10;101173.56;105955;1267;71414;-88
2023/09/11 10:00:45;;;;;;;;;;;;;;;24.98;61.12;101170.59;105724;1267;59347;-88
2023/09/11 10:03:11;;;;;;;;;;;;;;;25.01;60.79;101168.70;105986;1267;124568;-86
2023/09/11 10:05:40;;;;;;;;;;;;;;;25.04;60.60;101165.02;105718;1275;73880;-86
2023/09/11 10:08:07;;;;;;;;;;;;;;;25.11;60.50;101166.63;105974;1270;124419;-88
2023/09/11 10:10:36;;;;;;;;;;;;;;;25.15;60.16;101161.13;105956;1267;73169;-88
2023/09/11 10:13:31;;;;;;;;;;;;;;;;;;;;;
2023/09/11 10:16:05;;;;;;;;;;;;;;;25.29;60.61;101157.33;105785;1267;61592;-88
2023/09/11 10:18:32;;;;;;;;;;;;;;;25.36;60.02;101155.50;105656;1268;74659;-86
2023/09/11 10:20:59;;;;;;;;;;;;;;;25.41;59.62;101153.39;105727;1267;124622;-88
2023/09/11 10:23:25;;;;;;;;;;;;;;;25.46;59.58;101148.90;105734;1271;72651;-87
2023/09/11 10:25:54;;;;;;;;;;;;;;;25.53;59.52;101148.70;105825;1267;125387;-87
2023/09/11 10:28:22;;;;;;;;;;;;;;;25.60;59.56;101148.84;105676;1273;60160;-87
2023/09/11 10:30:55;;;;;;;;;;;;;;;25.67;59.27;101144.84;105833;1267;73529;-87
2023/09/11 10:33:29;;;;;;;;;;;;;;;25.74;59.23;101144.81;105941;1268;124474;-87
2023/09/11 10:35:59;;;;;;;;;;;;;;;25.83;59.16;101141.81;105744;1273;71666;-87
2023/09/11 10:38:27;;;;;;;;;;;;;;;25.91;58.92;101138.52;105890;1268;124904;-86
2023/09/11 10:41:00;;;;;;;;;;;;;;;25.95;58.77;101139.10;105745;1267;61421;-87
2023/09/11 10:43:26;;;;;;;;;;;;;;;26.00;58.47;101140.77;105853;1268;73612;-87
2023/09/11 10:46:22;;;;;;;;;;;;;;;26.03;58.07;101133.31;105831;1268;124158;-86
2023/09/11 10:48:52;;;;;;;;;;;;;;;26.08;58.04;101129.88;105732;1267;73035;-87
2023/09/11 10:51:26;;;;;;;;;;;;;;;26.15;58.15;101129.62;105859;1273;124372;-86
2023/09/11 10:53:59;;;;;;;;;;;;;;;26.26;58.23;101129.65;105843;1268;61307;-86
2023/09/11 10:56:26;;;;;;;;;;;;;;;26.36;58.16;101127.50;105712;1267;124407;-88
2023/09/11 10:58:52;;;;;;;;;;;;;;;26.45;58.04;101124.64;105839;1267;66785;-85
2023/09/11 11:01:19;;;;;;;;;;;;;;;26.55;57.76;101123.20;105969;1268;71155;-87
2023/09/11 11:03:45;;;;;;;;;;;;;;;26.63;57.67;101126.04;105788;1269;124491;-88
2023/09/11 11:06:16;;;;;;;;;;;;;;;26.67;57.59;101124.27;105963;1272;61290;-89
2023/09/11 11:08:47;;;;;;;;;;;;;;;26.71;57.26;101119.62;105751;1272;124222;-87
2023/09/11 11:11:18;;;;;;;;;;;;;;;26.78;57.32;101117.56;105912;1269;64851;-85
2023/09/11 11:14:06;;;;;;;;;;;;;;;26.87;57.31;101113.80;105897;1268;124714;-87
2023/09/11 11:16:41;;;;;;;;;;;;;;;27.02;57.05;101112.54;106020;1268;61416;-87
2023/09/11 11:19:09;;;;;;;;;;;;;;;27.17;56.98;101112.70;105855;1270;61166;-85
2023/09/11 11:21:37;;;;;;;;;;;;;;;27.31;56.68;101109.63;105660;1268;124623;-85
2023/09/11 11:24:05;;;;;;;;;;;;;;;27.43;56.55;101104.50;105808;1268;61217;-86
2023/09/11 11:26:39;;;;;;;;;;;;;;;27.59;56.10;101105.33;105797;1268;124377;-86
2023/09/11 11:29:12;;;;;;;;;;;;;;;27.70;55.56;101100.36;105599;1270;61174;-85
2023/09/11 11:31:38;;;;;;;;;;;;;;;27.86;55.39;101100.45;105938;1267;61391;-85
2023/09/11 11:34:08;;;;;;;;;;;;;;;28.03;55.00;101096.86;105797;1273;124439;-85
2023/09/11 11:36:35;;;;;;;;;;;;;;;28.18;54.86;101098.37;106021;1270;61329;-85
2023/09/11 11:39:03;;;;;;;;;;;;;;;28.34;54.72;101097.16;105726;1269;124493;-85
2023/09/11 11:41:30;;;;;;;;;;;;;;;28.50;54.16;101100.96;105833;1268;61586;-87
2023/09/11 11:44:00;;;;;;;;;;;;;;;28.62;53.81;101106.59;105652;1270;124605;-85
2023/09/11 11:46:31;;;;;;;;;;;;;;;28.77;53.55;101105.91;105668;1270;65772;-86
2023/09/11 11:48:57;;;;;;;;;;;;;;;28.86;53.32;101102.59;105863;1268;61276;-85
2023/09/11 11:51:26;;;;;;;;;;;;;;;28.88;52.80;101106.66;105777;1268;124687;-86
2023/09/11 11:54:04;;;;;;;;;;;;;;;28.72;52.64;101104.16;105914;1267;61412;-83
2023/09/11 11:56:30;;;;;;;;;;;;;;;28.48;52.63;101105.39;105927;1268;124419;-84
2023/09/11 11:58:57;;;;;;;;;;;;;;;28.26;52.67;101106.91;106051;1268;62179;-87
2023/09/11 12:01:23;;;;;;;;;;;;;;;28.12;52.76;101106.76;105935;1273;61338;-85
2023/09/11 12:03:50;;;;;;;;;;;;;;;28.00;52.72;101107.77;105715;1268;124318;-85
2023/09/11 12:06:18;;;;;;;;;;;;;;;27.77;52.53;101108.54;105859;1268;61256;-86
2023/09/11 12:08:44;;;;;;;;;;;;;;;27.44;52.69;101110.39;105889;1267;124526;-85
2023/09/11 12:11:11;;;;;;;;;;;;;;;27.18;52.67;101110.86;105980;1268;65810;-87
2023/09/11 12:13:38;;;;;;;;;;;;;;;26.88;52.85;101109.44;105842;1267;66340;-86
2023/09/11 12:16:04;;;;;;;;;;;;;;;26.65;53.13;101112.45;105849;1267;124084;-84
2023/09/11 12:18:35;;;;;;;;;;;;;;;26.49;53.27;101111.00;106083;1268;61405;-84
2023/09/11 12:21:03;;;;;;;;;;;;;;;26.36;53.56;101105.34;105837;1267;124295;-84
2023/09/11 12:23:29;;;;;;;;;;;;;;;26.29;53.69;101110.10;105894;1267;73408;-87
2023/09/11 12:26:02;;;;;;;;;;;;;;;26.23;53.75;101110.14;105702;1267;124542;-85